createdAt,value
2022-10-05T00:01:38.260Z,101224.63
2022-10-05T00:04:16.963Z,101227.69
2022-10-05T00:06:54.945Z,101232.75
2022-10-05T00:09:26.675Z,101238.66
2022-10-05T00:12:03.812Z,101230.66
2022-10-05T00:14:42.017Z,101242.59
2022-10-05T00:17:20.921Z,101240.34
2022-10-05T00:19:57.597Z,101236.56
2022-10-05T00:22:34.204Z,101229.75
2022-10-05T00:25:14.386Z,101217.06
2022-10-05T00:27:45.326Z,101216.38
2022-10-05T00:30:20.259Z,101210.38
2022-10-05T00:32:51.726Z,101220.88
2022-10-05T00:35:29.639Z,101228.59
2022-10-05T00:38:00.521Z,101232.25
2022-10-05T00:40:39.572Z,101230.25
2022-10-05T00:43:28.808Z,101229.44
2022-10-05T00:46:07.923Z,101225.38
2022-10-05T00:48:48.781Z,101222.03
2022-10-05T00:51:27.708Z,101230.97
2022-10-05T00:54:17.484Z,101218.03
2022-10-05T00:57:05.471Z,101216.38
2022-10-05T00:59:49.297Z,101210.00
2022-10-05T01:02:30.870Z,101207.09
2022-10-05T01:05:08.262Z,101208.56
2022-10-05T01:07:48.491Z,101201.63
2022-10-05T01:10:27.252Z,101200.63
2022-10-05T01:13:08.217Z,101199.66
2022-10-05T01:15:46.519Z,101194.66
2022-10-05T01:18:22.221Z,101192.19
2022-10-05T01:21:05.979Z,101198.34
2022-10-05T01:24:03.589Z,101204.31
2022-10-05T01:27:15.747Z,101199.09
2022-10-05T01:29:55.447Z,101188.59
2022-10-05T01:32:32.805Z,101182.56
2022-10-05T01:35:16.564Z,101161.16
2022-10-05T01:37:55.460Z,101170.69
2022-10-05T01:40:36.023Z,101179.28
2022-10-05T01:43:17.274Z,101177.63
2022-10-05T01:45:59.146Z,101180.25
2022-10-05T01:48:38.509Z,101182.09
2022-10-05T01:51:15.500Z,101184.88
2022-10-05T01:53:58.505Z,101179.28
2022-10-05T01:56:38.481Z,101170.78
2022-10-05T01:59:19.053Z,101168.34
2022-10-05T02:02:01.706Z,101169.09
2022-10-05T02:05:01.023Z,101180.81
2022-10-05T02:07:32.903Z,101181.13
2022-10-05T02:10:08.963Z,101186.63
2022-10-05T02:12:41.265Z,101191.84
2022-10-05T02:15:16.743Z,101197.03
2022-10-05T02:17:53.971Z,101190.59
2022-10-05T02:20:27.907Z,101196.69
2022-10-05T02:23:05.344Z,101192.41
2022-10-05T02:25:40.973Z,101195.31
2022-10-05T02:28:16.208Z,101198.28
2022-10-05T02:30:51.649Z,101185.59
2022-10-05T02:33:30.806Z,101194.13
2022-10-05T02:36:05.621Z,101195.06
2022-10-05T02:38:43.257Z,101179.94
2022-10-05T02:41:23.052Z,101183.63
2022-10-05T02:44:02.727Z,101186.13
2022-10-05T02:46:41.142Z,101189.88
2022-10-05T02:49:48.325Z,101191.72
2022-10-05T02:52:31.060Z,101186.47
2022-10-05T02:55:15.523Z,101191.38
2022-10-05T02:57:55.195Z,101189.25
2022-10-05T03:00:28.316Z,101180.97
2022-10-05T03:03:05.179Z,101183.41
2022-10-05T03:05:47.308Z,101183.72
2022-10-05T03:08:25.476Z,101179.88
2022-10-05T03:11:07.576Z,101171.75
2022-10-05T03:13:49.692Z,101177.03
2022-10-05T03:17:02.735Z,101165.09
2022-10-05T03:20:04.440Z,101167.81
2022-10-05T03:22:49.761Z,101177.22
2022-10-05T03:25:53.635Z,101169.88
2022-10-05T03:32:16.903Z,101161.69
2022-10-05T03:34:54.139Z,101153.53
2022-10-05T03:37:37.783Z,101153.63
2022-10-05T03:40:30.907Z,101153.50
2022-10-05T03:43:20.701Z,101156.31
2022-10-05T03:46:00.348Z,101149.50
2022-10-05T03:48:38.057Z,101147.81
2022-10-05T03:51:15.287Z,101135.47
2022-10-05T03:53:52.221Z,101150.06
2022-10-05T03:56:33.702Z,101144.50
2022-10-05T03:59:11.944Z,101129.22
2022-10-05T04:01:48.549Z,101126.41
2022-10-05T04:04:25.828Z,101124.91
2022-10-05T04:06:58.931Z,101124.69
2022-10-05T04:09:34.886Z,101128.88
2022-10-05T04:12:19.364Z,101116.53
2022-10-05T04:14:56.413Z,101125.72
2022-10-05T04:17:34.942Z,101123.91
2022-10-05T04:20:09.015Z,101122.47
2022-10-05T04:22:43.647Z,101128.06
2022-10-05T04:25:20.516Z,101124.47
2022-10-05T04:28:01.208Z,101126.00
2022-10-05T04:30:34.246Z,101128.88
2022-10-05T04:33:04.831Z,101127.91
2022-10-05T04:35:45.312Z,101134.59
2022-10-05T04:38:28.037Z,101128.03
2022-10-05T04:41:12.648Z,101122.38
2022-10-05T04:43:55.974Z,101128.75
2022-10-05T04:46:41.373Z,101114.53
2022-10-05T04:49:24.905Z,101115.00
2022-10-05T04:51:59.975Z,101120.84
2022-10-05T04:54:43.592Z,101121.00
2022-10-05T04:57:20.594Z,101123.84
2022-10-05T05:00:05.989Z,101131.63
2022-10-05T05:02:54.526Z,101132.63
2022-10-05T05:05:34.467Z,101130.13
2022-10-05T05:08:18.420Z,101132.03
2022-10-05T05:11:15.832Z,101129.97
2022-10-05T05:14:19.406Z,101121.84
2022-10-05T05:17:12.188Z,101126.06
2022-10-05T05:19:54.069Z,101120.16
2022-10-05T05:22:34.588Z,101121.44
2022-10-05T05:25:23.098Z,101120.31
2022-10-05T05:27:57.721Z,101126.28
2022-10-05T05:30:43.605Z,101128.25
2022-10-05T05:33:36.603Z,101126.59
2022-10-05T05:36:23.255Z,101122.81
2022-10-05T05:39:09.684Z,101119.41
2022-10-05T05:41:41.808Z,101111.72
2022-10-05T05:44:22.832Z,101109.13
2022-10-05T05:47:04.068Z,101104.28
2022-10-05T05:57:57.627Z,101093.53
2022-10-05T06:00:33.131Z,101108.78
2022-10-05T06:03:22.437Z,101107.31
2022-10-05T06:06:13.178Z,101120.13
2022-10-05T06:08:48.276Z,101116.69
2022-10-05T06:11:23.778Z,101117.84
2022-10-05T06:13:58.631Z,101115.28
2022-10-05T06:16:38.746Z,101112.13
2022-10-05T06:19:15.068Z,101116.50
2022-10-05T06:21:54.662Z,101120.50
2022-10-05T06:24:29.195Z,101116.81
2022-10-05T06:27:27.399Z,101129.88
2022-10-05T06:30:06.277Z,101120.03
2022-10-05T06:32:46.350Z,101120.81
2022-10-05T06:35:29.266Z,101132.63
2022-10-05T06:38:22.254Z,101135.31
2022-10-05T06:41:02.354Z,101131.56
2022-10-05T06:43:56.143Z,101130.75
2022-10-05T06:46:31.707Z,101129.78
2022-10-05T06:49:14.505Z,101127.03
2022-10-05T06:51:53.917Z,101136.19
2022-10-05T06:54:38.756Z,101138.66
2022-10-05T06:57:17.421Z,101141.59
2022-10-05T06:59:58.977Z,101139.47
2022-10-05T07:02:47.793Z,101155.06
2022-10-05T07:09:18.654Z,101137.59
2022-10-05T07:12:08.624Z,101142.50
2022-10-05T07:14:51.959Z,101131.06
2022-10-05T07:17:45.342Z,101142.50
2022-10-05T07:20:31.699Z,101154.38
2022-10-05T07:23:19.812Z,101139.13
2022-10-05T07:25:53.945Z,101143.78
2022-10-05T07:28:34.294Z,101142.28
2022-10-05T07:31:12.580Z,101143.31
2022-10-05T07:33:50.061Z,101141.91
2022-10-05T07:36:38.148Z,101128.91
2022-10-05T07:39:17.134Z,101140.78
2022-10-05T07:41:52.589Z,101137.50
2022-10-05T07:44:34.255Z,101145.00
2022-10-05T07:47:13.271Z,101140.75
2022-10-05T07:49:50.060Z,101130.25
2022-10-05T07:52:31.077Z,101141.75
2022-10-05T07:55:10.321Z,101144.00
2022-10-05T07:57:46.544Z,101146.47
2022-10-05T08:00:23.036Z,101140.53
2022-10-05T08:02:56.551Z,101142.34
2022-10-05T08:05:31.730Z,101135.69
2022-10-05T08:08:09.628Z,101138.41
2022-10-05T08:10:44.543Z,101147.13
2022-10-05T08:13:21.344Z,101147.59
2022-10-05T08:16:00.954Z,101154.13
2022-10-05T08:18:51.272Z,101146.41
2022-10-05T08:21:26.071Z,101134.19
2022-10-05T08:24:00.508Z,101123.34
2022-10-05T08:26:41.304Z,101123.06
2022-10-05T08:29:18.949Z,101115.53
2022-10-05T08:31:54.684Z,101120.16
2022-10-05T08:34:32.669Z,101115.25
2022-10-05T08:37:07.239Z,101113.00
2022-10-05T08:39:44.299Z,101112.81
2022-10-05T08:42:45.518Z,101106.00
2022-10-05T08:45:41.003Z,101086.16
2022-10-05T08:48:56.570Z,101081.88
2022-10-05T08:51:42.534Z,101075.72
2022-10-05T08:54:44.452Z,101083.34
2022-10-05T08:57:36.484Z,101083.03
2022-10-05T09:00:18.297Z,101087.50
2022-10-05T09:03:09.593Z,101084.50
2022-10-05T09:06:01.712Z,101080.69
2022-10-05T09:09:09.588Z,101068.19
2022-10-05T09:11:42.244Z,101065.38
2022-10-05T09:15:01.495Z,101074.84
2022-10-05T09:18:08.094Z,101071.69
2022-10-05T09:20:53.834Z,101076.63
2022-10-05T09:23:43.028Z,101066.88
2022-10-05T09:26:48.019Z,101067.56
2022-10-05T09:29:47.184Z,101062.91
2022-10-05T09:32:39.255Z,101072.53
2022-10-05T09:35:25.484Z,101071.75
2022-10-05T09:38:16.054Z,101063.38
2022-10-05T09:41:18.310Z,101077.50
2022-10-05T09:44:36.361Z,101064.06
2022-10-05T09:47:38.123Z,101061.69
2022-10-05T09:50:20.787Z,101055.81
2022-10-05T09:53:01.719Z,101064.13
2022-10-05T09:56:05.306Z,101057.94
2022-10-05T09:59:09.550Z,101067.34
2022-10-05T10:01:58.079Z,101050.94
2022-10-05T10:04:52.650Z,101062.28
2022-10-05T10:07:48.484Z,101039.47
2022-10-05T10:10:45.882Z,101038.16
2022-10-05T10:13:45.828Z,101042.78
2022-10-05T10:16:36.539Z,101031.94
2022-10-05T10:19:55.568Z,101035.00
2022-10-05T10:23:03.684Z,101037.19
2022-10-05T10:25:57.116Z,101033.69
2022-10-05T10:29:06.550Z,101035.28
2022-10-05T10:31:48.496Z,101039.38
2022-10-05T10:34:33.552Z,101014.06
2022-10-05T10:37:34.516Z,101023.91
2022-10-05T10:40:37.936Z,101034.78
2022-10-05T10:43:32.149Z,101029.63
2022-10-05T10:46:12.956Z,101036.44
2022-10-05T10:48:53.792Z,101041.88
2022-10-05T10:51:46.502Z,101037.84
2022-10-05T10:54:49.816Z,101049.72
2022-10-05T10:57:28.319Z,101046.53
2022-10-05T11:00:30.110Z,101050.84
2022-10-05T11:03:19.657Z,101043.56
2022-10-05T11:06:33.415Z,101039.50
2022-10-05T11:09:34.715Z,101028.81
2022-10-05T11:12:53.177Z,101029.97
2022-10-05T11:15:43.619Z,101027.44
2022-10-05T11:18:20.475Z,101027.16
2022-10-05T11:21:14.391Z,101014.03
2022-10-05T11:24:24.889Z,101009.03
2022-10-05T11:30:15.063Z,101009.50
2022-10-05T11:33:06.355Z,101005.34
2022-10-05T11:35:53.145Z,101004.13
2022-10-05T11:38:54.958Z,101002.53
2022-10-05T11:41:57.719Z,100987.59
2022-10-05T11:44:54.482Z,100979.81
2022-10-05T11:47:31.884Z,100986.97
2022-10-05T11:50:14.780Z,100993.41
2022-10-05T11:52:53.554Z,100976.25
2022-10-05T11:55:29.888Z,100973.38
2022-10-05T11:58:02.432Z,100979.09
2022-10-05T12:00:40.583Z,100976.97
2022-10-05T12:03:34.221Z,100973.19
2022-10-05T12:06:19.463Z,100977.53
2022-10-05T12:09:04.121Z,100972.69
2022-10-05T12:11:46.535Z,100962.59
2022-10-05T12:14:24.643Z,100961.97
2022-10-05T12:17:03.355Z,100956.69
2022-10-05T12:19:42.586Z,100963.09
2022-10-05T12:22:19.904Z,100961.28
2022-10-05T12:25:21.783Z,100954.88
2022-10-05T12:27:55.731Z,100951.78
2022-10-05T12:30:35.412Z,100961.66
2022-10-05T12:33:11.762Z,100955.31
2022-10-05T12:36:00.229Z,100944.59
2022-10-05T12:39:03.552Z,100941.44
2022-10-05T12:41:38.981Z,100954.94
2022-10-05T12:44:20.475Z,100935.03
2022-10-05T12:50:27.214Z,100946.16
2022-10-05T12:53:11.061Z,100944.06
2022-10-05T12:55:50.036Z,100935.94
2022-10-05T12:58:31.944Z,100932.22
2022-10-05T13:01:42.161Z,100924.69
2022-10-05T13:04:25.564Z,100927.53
2022-10-05T13:07:25.018Z,100920.81
2022-10-05T13:10:05.717Z,100920.28
2022-10-05T13:12:48.089Z,100920.75
2022-10-05T13:15:26.595Z,100919.72
2022-10-05T13:18:20.090Z,100929.31
2022-10-05T13:20:57.002Z,100933.97
2022-10-05T13:23:34.881Z,100932.44
2022-10-05T13:26:13.359Z,100935.34
2022-10-05T13:28:51.150Z,100925.38
2022-10-05T13:31:34.744Z,100939.66
2022-10-05T13:34:17.961Z,100944.41
2022-10-05T13:37:02.319Z,100939.41
2022-10-05T13:39:47.485Z,100923.75
2022-10-05T13:42:27.120Z,100925.34
2022-10-05T13:45:02.591Z,100916.31
2022-10-05T13:47:40.112Z,100918.34
2022-10-05T13:50:20.148Z,100914.84
2022-10-05T13:52:59.258Z,100912.34
2022-10-05T13:55:40.130Z,100921.16
2022-10-05T13:58:22.092Z,100908.25
2022-10-05T14:00:56.008Z,100916.75
2022-10-05T14:03:47.395Z,100908.41
2022-10-05T14:06:30.821Z,100916.03
2022-10-05T14:09:13.392Z,100908.88
2022-10-05T14:23:45.641Z,100886.19
2022-10-05T14:26:38.321Z,100882.25
2022-10-05T14:29:21.294Z,100893.25
2022-10-05T14:31:57.642Z,100885.69
2022-10-05T14:34:37.541Z,100873.22
2022-10-05T14:37:45.137Z,100882.56
2022-10-05T14:45:03.565Z,100855.88
2022-10-05T14:52:34.707Z,100869.00
2022-10-05T15:08:04.469Z,100848.16
2022-10-05T15:33:58.526Z,100850.81
2022-10-05T15:37:30.184Z,100844.38
2022-10-05T15:40:04.369Z,100841.41
2022-10-05T16:24:28.587Z,100839.31
2022-10-05T16:39:07.014Z,100831.44
2022-10-05T17:00:08.837Z,100820.44
2022-10-05T17:02:55.025Z,100818.28
2022-10-05T17:05:41.813Z,100826.16
2022-10-05T17:08:30.518Z,100824.06
2022-10-05T17:11:17.071Z,100823.00
2022-10-05T17:14:10.233Z,100824.81
2022-10-05T17:16:58.777Z,100830.28
2022-10-05T17:19:53.341Z,100831.19
2022-10-05T17:22:30.103Z,100838.09
2022-10-05T17:25:09.711Z,100838.03
2022-10-05T17:27:55.053Z,100836.41
2022-10-05T17:30:48.547Z,100834.59
2022-10-05T17:33:29.506Z,100835.00
2022-10-05T17:36:24.023Z,100841.03
2022-10-05T17:39:16.392Z,100839.75
2022-10-05T17:41:53.720Z,100836.47
2022-10-05T17:44:29.126Z,100832.50
2022-10-05T17:47:17.502Z,100835.59
2022-10-05T17:50:11.996Z,100838.91
2022-10-05T17:53:01.266Z,100841.59
2022-10-05T17:56:10.128Z,100844.94
2022-10-05T17:59:10.972Z,100841.66
2022-10-05T18:02:35.260Z,100839.00
2022-10-05T18:05:42.617Z,100837.38
2022-10-05T18:08:44.640Z,100836.31
2022-10-05T18:11:50.668Z,100835.19
2022-10-05T18:44:39.546Z,100828.44
2022-10-05T18:48:57.332Z,100833.78
2022-10-05T18:51:57.852Z,100831.00
2022-10-05T18:54:46.480Z,100833.06
2022-10-05T18:57:46.964Z,100836.22
2022-10-05T19:04:33.908Z,100835.44
2022-10-05T19:07:20.666Z,100838.72
2022-10-05T19:10:10.204Z,100836.59
2022-10-05T19:13:05.347Z,100828.13
2022-10-05T19:15:42.668Z,100831.09
2022-10-05T19:18:30.158Z,100836.41
2022-10-05T19:21:10.546Z,100836.06
2022-10-05T19:23:59.002Z,100845.03
2022-10-05T19:26:54.172Z,100845.41
2022-10-05T19:30:09.612Z,100849.94
2022-10-05T19:33:01.398Z,100849.34
2022-10-05T19:35:44.333Z,100866.16
2022-10-05T19:38:28.795Z,100862.31
2022-10-05T19:41:17.180Z,100868.19
2022-10-05T19:44:07.007Z,100874.72
2022-10-05T19:46:54.142Z,100886.50
2022-10-05T19:50:05.550Z,100887.53
2022-10-05T19:52:49.879Z,100879.91
2022-10-05T19:55:39.710Z,100887.41
2022-10-05T19:58:26.149Z,100888.34
2022-10-05T20:01:02.012Z,100894.75
2022-10-05T20:03:42.944Z,100892.25
2022-10-05T20:06:14.253Z,100899.59
2022-10-05T20:12:52.645Z,100905.41
2022-10-05T20:15:44.352Z,100898.66
2022-10-05T20:18:55.428Z,100898.03
2022-10-05T20:21:47.838Z,100915.34
2022-10-05T20:24:23.726Z,100917.38
2022-10-05T20:30:46.210Z,100928.63
2022-10-05T20:33:32.904Z,100940.94
2022-10-05T20:36:04.283Z,100940.34
2022-10-05T20:38:40.076Z,100942.94
2022-10-05T20:41:15.201Z,100942.75
2022-10-05T20:43:45.543Z,100941.00
2022-10-05T20:46:19.256Z,100948.97
2022-10-05T20:48:49.813Z,100960.09
2022-10-05T20:51:21.221Z,100954.25
2022-10-05T20:54:02.055Z,100959.00
2022-10-05T20:56:33.523Z,100964.53
2022-10-05T20:59:18.673Z,100961.38
2022-10-05T21:01:52.614Z,100966.34
2022-10-05T21:04:25.623Z,100974.53
2022-10-05T21:06:56.587Z,100969.66
2022-10-05T21:09:32.927Z,100967.44
2022-10-05T21:12:03.694Z,100980.84
2022-10-05T21:14:36.274Z,100969.97
2022-10-05T21:17:12.013Z,100970.06
2022-10-05T21:19:42.281Z,100972.91
2022-10-05T21:22:13.334Z,100979.16
2022-10-05T21:24:44.030Z,100986.78
2022-10-05T21:27:14.971Z,100991.94
2022-10-05T21:29:45.435Z,100990.28
2022-10-05T21:32:18.913Z,100989.28
2022-10-05T21:34:48.937Z,100995.63
2022-10-05T21:37:19.953Z,100990.84
2022-10-05T21:39:50.049Z,101000.38
2022-10-05T21:42:20.388Z,100995.22
2022-10-05T21:44:50.281Z,100999.75
2022-10-05T21:47:23.411Z,100999.31
2022-10-05T21:49:57.636Z,101002.06
2022-10-05T21:52:30.723Z,101007.03
2022-10-05T21:55:01.430Z,101007.22
2022-10-05T21:57:36.439Z,101005.22
2022-10-05T22:00:10.566Z,101001.53
2022-10-05T22:02:43.516Z,101006.75
2022-10-05T22:05:13.977Z,101008.88
2022-10-05T22:07:44.359Z,101010.69
2022-10-05T22:10:14.747Z,101009.41
2022-10-05T22:12:46.905Z,101008.69
2022-10-05T22:15:18.220Z,101007.94
2022-10-05T22:17:51.528Z,101010.22
2022-10-05T22:20:26.930Z,101005.28
2022-10-05T22:23:19.548Z,101006.88
2022-10-05T22:25:51.053Z,101015.56
2022-10-05T22:28:21.206Z,101012.56
2022-10-05T22:30:52.021Z,101009.53
2022-10-05T22:33:24.807Z,101017.50
2022-10-05T22:35:55.326Z,101015.66
2022-10-05T22:38:25.777Z,101020.88
2022-10-05T22:40:56.329Z,101016.56
2022-10-05T22:43:27.046Z,101023.75
2022-10-05T22:45:57.780Z,101019.34
2022-10-05T22:48:30.908Z,101023.84
2022-10-05T22:51:01.345Z,101019.63
2022-10-05T22:53:31.198Z,101030.91
2022-10-05T22:56:07.065Z,101024.00
2022-10-05T22:58:37.966Z,101028.19
2022-10-05T23:01:10.462Z,101030.50
2022-10-05T23:03:44.727Z,101031.63
2022-10-05T23:06:18.078Z,101031.25
2022-10-05T23:08:49.726Z,101034.03
2022-10-05T23:11:22.309Z,101042.34
2022-10-05T23:13:53.885Z,101047.19
2022-10-05T23:16:26.986Z,101038.56
2022-10-05T23:19:01.847Z,101039.84
2022-10-05T23:21:33.607Z,101044.78
2022-10-05T23:24:04.678Z,101047.47
2022-10-05T23:26:36.161Z,101051.22
2022-10-05T23:29:06.735Z,101048.63
2022-10-05T23:31:37.410Z,101042.84
2022-10-05T23:34:10.868Z,101051.06
2022-10-05T23:36:41.946Z,101048.75
2022-10-05T23:39:14.079Z,101060.59
2022-10-05T23:41:44.818Z,101062.41
2022-10-05T23:44:16.414Z,101072.19
2022-10-05T23:46:47.012Z,101064.97
2022-10-05T23:49:20.569Z,101064.31
2022-10-05T23:51:51.688Z,101075.13
2022-10-05T23:54:23.473Z,101071.19
2022-10-05T23:56:54.662Z,101074.31
2022-10-05T23:59:26.039Z,101072.31
